Bom Retiro do Sul, Brazil
Current Conditions -  °F | °C
As of 8:00 AM on Friday 24 Oct 2014 (Local Time) from SBPA Reporting Station
Haze Haze  
Wind Chill: 64°   Ceiling: 600
Heat Index: 64°   Visibility: 2.5mi
Dew Point: 63°   Wind: 3mph
Humidity: 94%   Direction: 150°SSE
Pressure: 29.97"   Gusts: NA
Location:  29.61°S, 51.94°W
Report Text: SBPA 241000Z 15003KT 4000 BR BKN006 18/17 Q1015
Loading
Personal Weather Stations






























Interactive Weather Map
Tropical Storm Tracking
New forecast layout! Learn more

10-Day Weather Forecast

Advertisements
Track Severe Weather on mobile